Time;durP1;ratioP1;P1;durP2;ratioP2;P2;SDS_P1;SDS_P2;PMS_P1;PMS_P2;Temp;Humidity;BMP_temperature;BMP_pressure;BME280_temperature;BME280_humidity;BME280_pressure;Samples;Min_cycle;Max_cycle;Signal;HPM_P1;HPM_P2
2022/11/01 00:01:53;;;;;;;0.65;0.57;;;;;;;2.93;59.03;99606.31;5045342;28;20037;-57
2022/11/01 00:04:19;;;;;;;0.70;0.30;;;;;;;2.92;58.97;99615.16;5052493;28;20086;-54
2022/11/01 00:06:45;;;;;;;0.70;0.50;;;;;;;2.96;58.35;99617.59;5051662;28;20052;-57
2022/11/01 00:09:11;;;;;;;1.25;0.50;;;;;;;2.89;58.08;99616.19;5052337;28;20033;-52
2022/11/01 00:11:36;;;;;;;0.57;0.35;;;;;;;2.87;57.93;99623.34;5042748;28;20125;-58
2022/11/01 00:14:02;;;;;;;0.75;0.50;;;;;;;2.84;58.42;99623.50;5032538;28;20029;-57
2022/11/01 00:16:27;;;;;;;0.43;0.30;;;;;;;2.80;58.81;99621.94;5044395;28;20037;-57
2022/11/01 00:18:53;;;;;;;1.00;0.50;;;;;;;2.71;58.24;99628.56;5051270;28;20367;-60
2022/11/01 00:21:19;;;;;;;1.48;0.55;;;;;;;2.70;58.45;99627.72;5048541;28;20029;-59
2022/11/01 00:23:45;;;;;;;0.77;0.60;;;;;;;2.68;58.91;99613.72;5050811;28;20122;-59
2022/11/01 00:26:17;;;;;;;1.20;0.85;;;;;;;2.80;58.72;99621.94;5041282;28;20080;-58
2022/11/01 00:28:42;;;;;;;0.85;0.60;;;;;;;2.71;58.65;99618.84;5032582;28;20053;-55
2022/11/01 00:31:08;;;;;;;0.47;0.47;;;;;;;2.74;58.18;99623.13;5048045;28;20033;-58
2022/11/01 00:33:33;;;;;;;0.73;0.40;;;;;;;2.76;58.50;99633.63;5031327;28;20021;-57
2022/11/01 00:36:00;;;;;;;0.77;0.50;;;;;;;2.73;58.55;99632.84;5032391;28;20041;-57
2022/11/01 00:38:25;;;;;;;0.32;0.30;;;;;;;2.58;58.82;99613.34;5032015;28;20029;-54
2022/11/01 00:40:51;;;;;;;0.70;0.38;;;;;;;2.69;58.31;99641.88;5048949;28;20043;-59
2022/11/01 00:43:16;;;;;;;1.83;0.30;;;;;;;2.55;58.38;99621.44;5052141;28;20051;-68
2022/11/01 00:45:43;;;;;;;0.75;0.40;;;;;;;2.75;58.60;99650.41;5045929;28;20372;-55
2022/11/01 00:48:09;;;;;;;0.25;0.25;;;;;;;2.70;59.43;99643.59;5043071;28;20037;-53
2022/11/01 00:50:35;;;;;;;1.25;0.40;;;;;;;2.70;59.53;99648.88;5051956;28;20041;-56
2022/11/01 00:53:00;;;;;;;0.90;0.45;;;;;;;2.65;59.51;99656.19;5067738;28;20116;-58
2022/11/01 00:55:25;;;;;;;0.95;0.50;;;;;;;2.39;59.53;99616.03;5064094;28;20108;-55
2022/11/01 00:57:52;;;;;;;1.20;0.50;;;;;;;2.52;59.98;99647.16;5030589;28;20068;-56
2022/11/01 01:00:18;;;;;;;1.20;0.55;;;;;;;2.46;59.62;99650.13;5034911;28;20037;-61
2022/11/01 01:02:44;;;;;;;0.30;0.30;;;;;;;2.44;58.92;99642.25;5037294;28;20045;-57
2022/11/01 01:05:10;;;;;;;0.82;0.40;;;;;;;2.29;58.97;99620.97;5053372;28;20067;-56
2022/11/01 01:07:36;;;;;;;0.60;0.38;;;;;;;2.51;59.07;99654.22;5035502;28;20037;-55
2022/11/01 01:10:03;;;;;;;1.00;0.52;;;;;;;2.55;59.29;99660.22;5035612;28;20033;-58
2022/11/01 01:12:29;;;;;;;1.42;0.60;;;;;;;2.46;58.77;99626.31;5035690;28;20029;-57
2022/11/01 01:14:54;;;;;;;0.75;0.43;;;;;;;2.54;59.11;99663.78;5035274;28;20459;-58
2022/11/01 01:17:20;;;;;;;1.33;0.60;;;;;;;2.49;59.05;99649.97;5040185;28;20028;-58
2022/11/01 01:19:45;;;;;;;2.10;0.50;;;;;;;2.51;59.24;99654.22;5055493;28;20063;-59
2022/11/01 01:22:10;;;;;;;0.85;0.50;;;;;;;2.61;58.81;99651.13;5055488;28;20029;-58
2022/11/01 01:24:37;;;;;;;0.68;0.50;;;;;;;2.52;58.16;99652.44;5055428;28;20071;-56
2022/11/01 01:27:03;;;;;;;1.38;0.40;;;;;;;2.54;58.44;99650.56;5054413;28;20040;-58
2022/11/01 01:29:28;;;;;;;1.58;0.60;;;;;;;2.49;59.59;99660.53;5055284;28;20476;-57
2022/11/01 01:31:54;;;;;;;1.70;0.50;;;;;;;2.45;59.07;99659.81;5045158;28;20029;-56
2022/11/01 01:34:19;;;;;;;1.38;0.68;;;;;;;2.45;59.60;99657.16;5035185;28;20033;-55
2022/11/01 01:36:45;;;;;;;2.05;0.60;;;;;;;2.35;59.42;99642.72;5034707;28;20037;-56
2022/11/01 01:39:11;;;;;;;2.35;0.60;;;;;;;2.28;59.59;99652.72;5033955;28;20021;-54
2022/11/01 01:41:54;;;;;;;1.75;0.60;;;;;;;2.27;59.60;99648.38;5034014;28;20045;-56
2022/11/01 01:44:50;;;;;;;0.75;0.43;;;;;;;2.38;59.56;99656.59;5034736;28;20132;-59
2022/11/01 01:47:23;;;;;;;1.05;0.70;;;;;;;2.35;59.46;99662.06;5035220;28;20416;-58
2022/11/01 01:50:01;;;;;;;0.95;0.55;;;;;;;2.31;59.89;99663.13;5034283;28;20099;-59
2022/11/01 01:52:31;;;;;;;0.98;0.43;;;;;;;2.31;59.64;99655.22;5048509;28;20329;-58
2022/11/01 01:55:01;;;;;;;0.73;0.60;;;;;;;2.12;60.36;99634.13;5066828;28;20060;-60
2022/11/01 01:57:27;;;;;;;1.10;0.60;;;;;;;2.24;59.95;99657.28;5034281;28;20033;-58
2022/11/01 01:59:52;;;;;;;1.73;0.70;;;;;;;2.35;59.54;99674.41;5036836;28;20471;-60
2022/11/01 02:02:19;;;;;;;2.13;0.70;;;;;;;2.26;60.28;99671.28;5035042;28;20047;-67
2022/11/01 02:04:52;;;;;;;1.20;0.70;;;;;;;2.20;60.21;99676.88;5034999;28;20120;-62
2022/11/01 02:07:17;;;;;;;1.15;0.60;;;;;;;2.20;60.45;99676.03;5034936;28;20174;-59
2022/11/01 02:09:43;;;;;;;2.10;0.75;;;;;;;2.03;60.32;99647.75;5052673;28;20078;-61
2022/11/01 02:12:13;;;;;;;1.20;0.70;;;;;;;2.27;60.10;99688.00;5053398;28;20056;-59
2022/11/01 02:14:41;;;;;;;1.73;0.80;;;;;;;2.23;60.11;99675.88;5041482;28;20032;-58
2022/11/01 02:17:06;;;;;;;1.85;0.60;;;;;;;2.25;59.42;99676.66;5033792;28;20037;-60
2022/11/01 02:20:23;;;;;;;1.38;0.57;;;;;;;2.39;58.93;99682.09;5042264;28;20043;-60
2022/11/01 02:23:22;;;;;;;1.35;0.57;;;;;;;2.43;59.20;99681.03;5034302;28;20460;-62
2022/11/01 02:25:50;;;;;;;0.90;0.50;;;;;;;2.33;58.37;99674.47;5034534;28;20053;-54
2022/11/01 02:28:28;;;;;;;1.02;0.50;;;;;;;2.29;58.19;99675.56;5042730;28;20348;-57
2022/11/01 02:31:25;;;;;;;0.85;0.50;;;;;;;2.23;58.68;99682.00;5041558;28;20037;-59
2022/11/01 02:34:03;;;;;;;0.65;0.40;;;;;;;2.23;58.77;99692.56;5033474;28;20038;-59
2022/11/01 02:36:36;;;;;;;2.58;0.60;;;;;;;2.20;58.39;99690.06;5034207;28;20038;-54
2022/11/01 02:39:18;;;;;;;1.27;0.70;;;;;;;2.22;58.37;99690.00;5034195;28;20132;-57
2022/11/01 02:42:00;;;;;;;1.38;0.70;;;;;;;2.22;58.78;99704.06;5048628;28;20407;-58
2022/11/01 02:44:30;;;;;;;1.17;0.70;;;;;;;2.26;58.28;99700.34;5034058;28;20111;-56
2022/11/01 02:47:01;;;;;;;1.15;0.65;;;;;;;2.25;58.51;99701.28;5034257;28;20039;-54
2022/11/01 02:49:36;;;;;;;0.70;0.60;;;;;;;2.28;58.38;99705.56;5033689;28;20444;-58
2022/11/01 02:52:03;;;;;;;2.13;0.60;;;;;;;2.24;58.68;99704.00;5033910;28;20567;-55
2022/11/01 02:54:38;;;;;;;1.95;0.80;;;;;;;2.23;58.87;99692.56;5034690;28;20253;-53
2022/11/01 02:57:25;;;;;;;1.63;0.70;;;;;;;2.11;59.10;99701.94;5034478;28;20107;-54
2022/11/01 02:59:51;;;;;;;1.13;0.70;;;;;;;2.00;59.09;99694.50;5035956;28;20452;-61
2022/11/01 03:02:38;;;;;;;1.20;0.60;;;;;;;2.08;59.46;99696.78;5053117;28;20039;-55
2022/11/01 03:05:14;;;;;;;1.63;0.65;;;;;;;2.09;59.55;99701.16;5052714;28;20188;-58
2022/11/01 03:07:45;;;;;;;1.08;0.70;;;;;;;2.10;58.87;99702.88;5033172;28;20738;-58
2022/11/01 03:10:10;;;;;;;1.10;0.57;;;;;;;2.01;58.88;99698.03;5033522;28;20757;-54
2022/11/01 03:13:01;;;;;;;0.85;0.60;;;;;;;2.14;58.78;99715.00;5033153;28;20038;-55
2022/11/01 03:15:32;;;;;;;1.08;0.60;;;;;;;2.01;58.58;99711.22;5033048;28;20092;-57
2022/11/01 03:17:59;;;;;;;1.35;0.70;;;;;;;1.94;58.86;99708.00;5033294;28;20044;-58
2022/11/01 03:20:53;;;;;;;1.00;0.57;;;;;;;1.83;58.85;99683.91;5039892;28;20120;-54
2022/11/01 03:23:31;;;;;;;1.02;0.68;;;;;;;1.96;59.11;99713.25;5052923;28;20025;-60
2022/11/01 03:25:59;;;;;;;1.02;0.60;;;;;;;1.89;58.79;99709.16;5053233;28;20452;-52
2022/11/01 03:28:32;;;;;;;1.30;0.70;;;;;;;1.95;59.32;99707.09;5053114;28;20029;-59
2022/11/01 03:31:09;;;;;;;1.73;0.80;;;;;;;1.92;59.54;99714.28;5052488;28;20183;-56
2022/11/01 03:33:39;;;;;;;1.77;0.68;;;;;;;1.93;59.20;99716.88;5032929;28;20025;-58
2022/11/01 03:36:10;;;;;;;3.47;0.60;;;;;;;1.92;59.86;99716.91;5033027;28;20061;-58
2022/11/01 03:38:40;;;;;;;1.85;0.73;;;;;;;1.96;59.84;99714.06;5051195;28;20120;-58
2022/11/01 03:41:10;;;;;;;4.65;1.00;;;;;;;1.97;59.47;99712.31;5036274;28;20467;-59
2022/11/01 03:43:37;;;;;;;1.70;0.93;;;;;;;2.02;59.59;99707.66;5033030;28;20050;-56
2022/11/01 03:46:03;;;;;;;2.10;1.02;;;;;;;2.09;59.86;99716.16;5032145;28;20060;-58
2022/11/01 03:48:28;;;;;;;3.58;1.20;;;;;;;2.14;59.94;99719.44;5031835;28;20029;-57
2022/11/01 03:50:57;;;;;;;2.08;1.25;;;;;;;2.19;59.58;99709.50;5033068;28;20034;-55
2022/11/01 03:53:23;;;;;;;5.57;1.10;;;;;;;2.12;59.08;99689.59;5036768;28;20036;-65
2022/11/01 03:55:49;;;;;;;2.83;1.05;;;;;;;2.02;59.14;99675.97;5052889;28;20539;-59
2022/11/01 03:58:14;;;;;;;4.43;1.30;;;;;;;2.17;59.10;99702.56;5047511;28;20049;-58
2022/11/01 04:00:43;;;;;;;3.08;1.40;;;;;;;2.25;59.34;99717.13;5037812;28;20444;-71
2022/11/01 04:03:09;;;;;;;2.95;1.70;;;;;;;2.31;58.58;99718.63;5052501;28;20447;-53
2022/11/01 04:05:37;;;;;;;2.45;1.35;;;;;;;2.26;58.90;99708.25;5044894;28;20035;-59
2022/11/01 04:08:03;;;;;;;1.58;1.13;;;;;;;2.25;58.18;99721.56;5048242;28;20033;-58
2022/11/01 04:10:29;;;;;;;3.25;1.20;;;;;;;2.21;58.28;99704.16;5050959;28;20094;-57
2022/11/01 04:12:55;;;;;;;1.42;1.08;;;;;;;2.08;57.88;99701.25;5050990;28;20091;-59
2022/11/01 04:21:12;;;;;;;2.25;1.55;;;;;;;2.24;57.46;99720.69;5048133;28;20048;-60
2022/11/01 04:23:38;;;;;;;3.05;1.70;;;;;;;2.15;57.80;99711.41;5050321;28;20029;-54
2022/11/01 04:26:05;;;;;;;3.15;1.92;;;;;;;2.17;57.39;99713.13;5052020;28;20052;-55
2022/11/01 04:28:30;;;;;;;4.88;2.00;;;;;;;2.10;57.42;99709.94;5052169;28;20108;-59
2022/11/01 04:30:56;;;;;;;3.40;2.00;;;;;;;2.02;57.99;99702.38;5051684;28;20565;-58
2022/11/01 04:33:21;;;;;;;2.20;1.80;;;;;;;2.05;58.06;99715.44;5039698;28;20033;-54
2022/11/01 04:35:47;;;;;;;2.88;1.73;;;;;;;2.05;57.61;99720.72;5043018;28;20104;-59
2022/11/01 04:38:13;;;;;;;2.50;1.75;;;;;;;2.09;58.17;99721.44;5055926;28;20041;-64
2022/11/01 04:40:40;;;;;;;2.95;2.25;;;;;;;2.14;57.96;99720.28;5043771;28;20040;-68
2022/11/01 04:43:06;;;;;;;5.45;2.08;;;;;;;2.20;58.26;99715.66;5055656;28;20048;-71
2022/11/01 04:45:31;;;;;;;5.63;2.30;;;;;;;2.19;57.84;99725.34;5054918;28;20124;-70
2022/11/01 04:48:15;;;;;;;2.42;1.65;;;;;;;2.29;57.80;99731.03;5072078;28;20104;-56
2022/11/01 04:50:41;;;;;;;2.95;1.92;;;;;;;2.25;57.51;99721.56;5055395;28;20028;-60
2022/11/01 04:53:07;;;;;;;6.60;1.65;;;;;;;2.07;57.27;99700.38;5045296;28;20031;-63
2022/11/01 04:55:33;;;;;;;2.95;1.80;;;;;;;2.26;57.17;99733.84;5045549;28;20044;-62
2022/11/01 04:57:58;;;;;;;6.45;1.70;;;;;;;2.23;57.35;99729.53;5035871;28;20025;-62
2022/11/01 05:00:25;;;;;;;4.65;1.70;;;;;;;2.28;57.16;99737.25;5036566;28;20517;-63
2022/11/01 05:02:50;;;;;;;3.65;1.88;;;;;;;2.25;57.63;99735.59;5052068;28;20025;-63
2022/11/01 05:05:16;;;;;;;4.10;1.65;;;;;;;2.27;57.66;99736.38;5055619;28;20029;-61
2022/11/01 05:07:42;;;;;;;5.20;2.10;;;;;;;2.27;57.48;99746.97;5071455;28;20043;-60
2022/11/01 05:10:09;;;;;;;3.13;1.67;;;;;;;2.13;57.15;99717.72;5055496;28;20119;-62
2022/11/01 05:12:35;;;;;;;4.85;1.35;;;;;;;2.27;57.14;99743.47;5036972;28;20540;-62
2022/11/01 05:15:01;;;;;;;3.10;1.30;;;;;;;2.19;58.17;99743.84;5035459;28;20455;-62
2022/11/01 05:17:26;;;;;;;1.20;1.05;;;;;;;2.20;57.56;99748.19;5035785;28;20029;-61
2022/11/01 05:19:51;;;;;;;4.18;1.20;;;;;;;2.21;58.03;99743.78;5036899;28;20080;-62
2022/11/01 05:22:17;;;;;;;2.53;1.10;;;;;;;2.18;57.47;99754.50;5039685;28;20414;-62
2022/11/01 05:24:42;;;;;;;2.38;1.15;;;;;;;2.23;57.84;99742.75;5055092;28;20025;-62
2022/11/01 05:27:08;;;;;;;1.67;1.23;;;;;;;2.18;57.97;99742.13;5036669;28;20030;-61
2022/11/01 05:29:33;;;;;;;4.10;1.23;;;;;;;2.07;58.31;99744.44;5052333;28;20033;-60
2022/11/01 05:31:59;;;;;;;3.17;1.42;;;;;;;2.10;58.42;99742.47;5037791;28;20112;-62
2022/11/01 05:34:24;;;;;;;8.60;1.20;;;;;;;2.00;58.38;99718.28;5034225;28;20436;-61
2022/11/01 05:36:50;;;;;;;4.10;1.42;;;;;;;2.20;58.08;99750.00;5036327;28;20029;-59
2022/11/01 05:39:15;;;;;;;2.38;1.17;;;;;;;2.24;58.28;99746.28;5036312;28;20048;-60
2022/11/01 05:41:40;;;;;;;2.08;1.20;;;;;;;2.26;58.32;99744.41;5049449;28;20044;-60
2022/11/01 05:44:06;;;;;;;3.20;1.15;;;;;;;2.23;57.97;99737.47;5037033;28;20279;-59
2022/11/01 05:46:32;;;;;;;3.22;1.30;;;;;;;2.29;58.15;99750.41;5054311;28;20049;-63
2022/11/01 05:48:57;;;;;;;2.05;0.90;;;;;;;2.17;58.08;99728.97;5052664;28;20076;-61
2022/11/01 05:51:23;;;;;;;6.35;1.77;;;;;;;2.36;58.52;99745.66;5047062;28;20078;-61
2022/11/01 05:53:49;;;;;;;2.05;1.10;;;;;;;2.38;58.03;99746.44;5053588;28;20066;-59
2022/11/01 05:56:16;;;;;;;5.05;1.55;;;;;;;2.37;57.83;99744.75;5054966;28;20078;-61
2022/11/01 05:58:42;;;;;;;3.35;1.20;;;;;;;2.38;58.47;99759.66;5054776;28;20044;-61
2022/11/01 06:01:07;;;;;;;4.05;1.23;;;;;;;2.37;58.25;99755.31;5052920;28;20033;-60
2022/11/01 06:03:34;;;;;;;3.55;1.38;;;;;;;2.40;58.21;99762.25;5054398;28;20090;-61
2022/11/01 06:05:59;;;;;;;2.15;1.20;;;;;;;2.46;58.41;99758.47;5052291;28;20060;-62
2022/11/01 06:08:25;;;;;;;8.50;1.70;;;;;;;2.51;58.21;99759.09;5053146;28;20416;-61
2022/11/01 06:10:51;;;;;;;2.47;1.08;;;;;;;2.55;58.31;99771.22;5047374;28;20029;-61
2022/11/01 06:13:17;;;;;;;2.05;0.88;;;;;;;2.21;58.27;99704.16;5036389;28;20043;-60
2022/11/01 06:15:43;;;;;;;3.22;1.45;;;;;;;2.64;58.37;99765.47;5033804;28;20120;-62
2022/11/01 06:18:08;;;;;;;4.35;1.50;;;;;;;2.75;58.09;99772.88;5050538;28;20435;-63
2022/11/01 06:20:35;;;;;;;2.88;1.25;;;;;;;2.60;57.31;99744.56;5049971;28;20034;-61
2022/11/01 06:23:08;;;;;;;4.03;1.35;;;;;;;2.60;57.41;99748.06;5034016;28;20029;-62
2022/11/01 06:25:34;;;;;;;3.97;1.00;;;;;;;2.73;57.39;99772.09;5034124;28;20076;-53
2022/11/01 06:27:59;;;;;;;8.02;1.48;;;;;;;2.69;58.17;99768.78;5032694;28;20057;-64
2022/11/01 06:30:25;;;;;;;8.32;1.67;;;;;;;2.63;57.69;99766.41;5035280;28;21761;-61
2022/11/01 06:32:50;;;;;;;5.60;1.42;;;;;;;2.67;58.02;99775.94;5053405;28;20037;-62
2022/11/01 06:35:16;;;;;;;7.32;1.75;;;;;;;2.67;58.23;99778.56;5037077;28;20037;-62
2022/11/01 06:37:41;;;;;;;3.83;1.42;;;;;;;2.72;58.02;99773.91;5033888;28;20486;-63
2022/11/01 06:40:07;;;;;;;3.53;1.38;;;;;;;2.79;57.63;99777.09;5040798;28;20124;-63
2022/11/01 06:42:33;;;;;;;4.35;1.60;;;;;;;2.86;57.51;99785.56;5052227;28;20124;-61
2022/11/01 06:44:59;;;;;;;5.07;1.33;;;;;;;2.90;57.08;99779.22;5052902;28;20125;-61
2022/11/01 06:47:24;;;;;;;6.10;1.70;;;;;;;2.77;57.24;99752.50;5054187;28;20425;-61
2022/11/01 06:49:50;;;;;;;7.13;1.65;;;;;;;2.95;56.73;99776.34;5053890;28;20044;-61
2022/11/01 06:52:15;;;;;;;4.55;1.23;;;;;;;2.98;57.10;99779.69;5052839;28;20704;-61
2022/11/01 06:54:41;;;;;;;2.83;1.10;;;;;;;2.94;56.57;99772.84;5062805;28;20024;-62
2022/11/01 06:57:06;;;;;;;4.65;1.33;;;;;;;3.00;56.84;99798.09;5071445;28;20238;-62
2022/11/01 06:59:32;;;;;;;6.47;1.20;;;;;;;3.05;56.35;99789.97;5033540;28;20364;-62
2022/11/01 07:01:57;;;;;;;2.53;1.05;;;;;;;3.05;57.00;99784.66;5033488;28;20127;-61
2022/11/01 07:04:25;;;;;;;3.25;1.38;;;;;;;3.10;56.59;99782.63;5033688;28;20033;-61
2022/11/01 07:06:51;;;;;;;2.13;1.20;;;;;;;3.15;56.49;99786.78;5033298;28;20464;-60
2022/11/01 07:09:17;;;;;;;3.88;1.58;;;;;;;3.19;57.02;99782.19;5051966;28;20380;-59
2022/11/01 07:11:42;;;;;;;2.53;1.30;;;;;;;3.34;56.83;99779.69;5051463;28;20048;-60
2022/11/01 07:14:08;;;;;;;5.38;1.40;;;;;;;3.42;55.97;99790.75;5052489;28;20036;-59
2022/11/01 07:16:33;;;;;;;1.88;1.10;;;;;;;3.27;55.46;99758.84;5052069;28;20104;-58
2022/11/01 07:18:59;;;;;;;6.00;1.10;;;;;;;3.53;55.48;99792.84;5053334;28;20792;-60
2022/11/01 07:21:24;;;;;;;7.35;1.23;;;;;;;3.59;55.38;99780.13;5048080;28;20059;-58
2022/11/01 07:23:52;;;;;;;4.85;1.27;;;;;;;3.65;55.11;99791.34;5051686;28;20124;-57
2022/11/01 07:26:17;;;;;;;4.03;1.23;;;;;;;3.62;55.15;99789.69;5052517;28;20063;-57
2022/11/01 07:28:43;;;;;;;4.57;1.25;;;;;;;3.67;55.12;99792.13;5050176;28;20404;-58
2022/11/01 07:31:08;;;;;;;5.85;1.27;;;;;;;3.73;54.88;99797.91;5033706;28;20140;-57
2022/11/01 07:33:34;;;;;;;2.55;1.23;;;;;;;3.79;54.64;99788.81;5032487;28;20065;-59
2022/11/01 07:36:01;;;;;;;2.95;1.40;;;;;;;3.86;54.73;99792.88;5040704;28;20706;-60
2022/11/01 07:38:27;;;;;;;3.55;1.50;;;;;;;3.86;53.99;99798.16;5045682;28;20344;-62
2022/11/01 07:40:53;;;;;;;5.22;1.60;;;;;;;3.88;54.74;99795.41;5051199;28;20029;-61
2022/11/01 07:43:19;;;;;;;2.33;1.13;;;;;;;3.89;54.60;99807.72;5052105;28;20048;-62
2022/11/01 07:45:45;;;;;;;4.18;1.55;;;;;;;3.84;53.81;99797.34;5052190;28;20041;-60
2022/11/01 07:48:13;;;;;;;10.70;1.63;;;;;;;3.97;53.98;99799.38;5050537;28;20100;-61
2022/11/01 07:50:40;;;;;;;7.10;1.85;;;;;;;3.98;54.30;99799.28;5052164;28;20032;-62
2022/11/01 07:53:12;;;;;;;5.75;1.17;;;;;;;4.07;54.23;99811.16;5052367;28;20035;-62
2022/11/01 07:55:38;;;;;;;7.22;1.25;;;;;;;3.85;54.31;99772.59;5065280;28;20332;-59
2022/11/01 07:58:04;;;;;;;5.43;1.15;;;;;;;4.05;54.09;99801.59;5071048;28;20453;-63
2022/11/01 08:00:30;;;;;;;3.78;1.33;;;;;;;4.06;54.00;99803.31;5072245;28;20120;-61
2022/11/01 08:03:06;;;;;;;3.53;1.17;;;;;;;4.07;54.07;99800.56;5072534;28;20425;-61
2022/11/01 08:05:33;;;;;;;2.88;1.30;;;;;;;3.89;54.19;99810.38;5072102;28;20450;-60
2022/11/01 08:07:58;;;;;;;3.75;1.42;;;;;;;3.78;54.41;99807.44;5071811;28;20036;-60
2022/11/01 08:10:25;;;;;;;4.57;1.63;;;;;;;3.82;54.96;99801.88;5071468;28;20169;-62
2022/11/01 08:12:50;;;;;;;6.32;1.85;;;;;;;3.88;54.70;99798.94;5071555;28;20055;-60
2022/11/01 08:15:16;;;;;;;7.18;2.10;;;;;;;3.89;54.54;99791.81;5071754;28;20068;-60
2022/11/01 08:17:41;;;;;;;8.18;2.33;;;;;;;3.82;54.53;99793.94;5053866;28;20059;-60
2022/11/01 08:20:07;;;;;;;7.50;1.55;;;;;;;3.76;54.70;99802.22;5071906;28;20100;-57
2022/11/01 08:22:33;;;;;;;5.97;1.35;;;;;;;3.76;54.80;99790.78;5071647;28;20359;-61
2022/11/01 08:24:58;;;;;;;8.73;1.60;;;;;;;3.73;55.02;99797.91;5071134;28;20115;-61
2022/11/01 08:27:24;;;;;;;5.65;1.65;;;;;;;3.82;54.76;99796.59;5072083;28;20050;-61
2022/11/01 08:29:50;;;;;;;4.78;1.67;;;;;;;3.84;54.82;99783.28;5072293;28;20103;-59
2022/11/01 08:32:20;;;;;;;4.25;1.65;;;;;;;3.95;54.83;99803.88;5072219;28;20442;-60
2022/11/01 08:34:45;;;;;;;6.07;1.80;;;;;;;3.72;54.77;99760.94;5072127;28;20020;-59
2022/11/01 08:37:11;;;;;;;2.72;1.60;;;;;;;3.97;55.28;99797.56;5071887;28;20032;-61
2022/11/01 08:39:37;;;;;;;6.55;2.35;;;;;;;4.04;54.95;99798.09;5070415;28;20025;-61
2022/11/01 08:42:04;;;;;;;4.60;2.10;;;;;;;4.13;54.82;99799.38;5051782;28;20095;-61
2022/11/01 08:44:31;;;;;;;5.22;2.22;;;;;;;4.24;53.71;99799.69;5051635;28;20447;-61
2022/11/01 08:47:00;;;;;;;7.15;1.83;;;;;;;4.29;53.25;99783.50;5044357;28;20040;-60
2022/11/01 08:49:26;;;;;;;5.07;1.92;;;;;;;4.46;52.93;99795.81;5031257;28;20392;-61
2022/11/01 08:51:51;;;;;;;4.20;1.30;;;;;;;4.42;52.18;99757.16;5050173;28;20112;-63
2022/11/01 08:54:17;;;;;;;5.35;2.00;;;;;;;4.71;52.11;99792.66;5051410;28;20021;-60
2022/11/01 08:56:42;;;;;;;3.90;1.80;;;;;;;4.75;52.22;99793.34;5049980;28;20467;-56
2022/11/01 08:59:08;;;;;;;4.00;1.92;;;;;;;4.52;51.72;99731.84;5051587;28;20071;-58
2022/11/01 09:01:34;;;;;;;3.65;1.92;;;;;;;4.83;51.92;99785.78;5048105;28;20036;-59
2022/11/01 09:04:00;;;;;;;6.57;1.90;;;;;;;4.63;51.41;99786.94;5050787;28;20104;-54
2022/11/01 09:06:27;;;;;;;5.78;2.00;;;;;;;4.63;52.10;99791.38;5067149;28;20048;-56
2022/11/01 09:08:53;;;;;;;4.50;1.70;;;;;;;4.65;51.66;99784.19;5050481;28;20033;-53
2022/11/01 09:11:20;;;;;;;5.72;2.13;;;;;;;4.74;52.26;99794.28;5054887;28;20042;-57
2022/11/01 09:13:46;;;;;;;5.57;1.70;;;;;;;4.81;51.64;99792.09;5048197;28;20041;-55
2022/11/01 09:16:11;;;;;;;6.28;2.13;;;;;;;4.86;51.12;99792.72;5031232;28;20045;-54
2022/11/01 09:18:37;;;;;;;3.90;1.85;;;;;;;4.95;51.18;99794.00;5036743;28;20594;-59
2022/11/01 09:21:02;;;;;;;3.67;1.50;;;;;;;4.96;50.98;99798.34;5034564;28;20120;-57
2022/11/01 09:23:28;;;;;;;6.82;2.17;;;;;;;4.90;50.70;99802.22;5050077;28;20037;-62
2022/11/01 09:26:04;;;;;;;8.80;2.63;;;;;;;4.96;51.56;99796.53;5053262;28;20036;-54
2022/11/01 09:28:29;;;;;;;;;;;;;;;5.36;51.35;99793.34;5037282;28;20451;-62
2022/11/01 09:30:55;;;;;;;;;;;;;;;5.58;51.32;99787.63;5053257;28;20011;-63
2022/11/01 09:33:22;;;;;;;5.38;2.40;;;;;;;5.42;50.03;99789.47;5054284;28;20267;-64
2022/11/01 09:35:51;;;;;;;5.85;2.10;;;;;;;5.21;50.23;99773.88;5041707;28;20073;-57
2022/11/01 09:38:17;;;;;;;11.20;2.13;;;;;;;5.16;50.55;99795.38;5049173;28;20060;-59
2022/11/01 09:40:45;;;;;;;7.90;2.67;;;;;;;5.09;50.72;99806.47;5046533;28;20123;-54
2022/11/01 09:43:19;;;;;;;4.88;2.28;;;;;;;5.10;51.23;99790.44;5074155;28;20464;-57
2022/11/01 09:45:47;;;;;;;6.10;2.17;;;;;;;4.93;50.83;99777.28;5048172;28;20030;-55
2022/11/01 09:48:14;;;;;;;5.07;2.00;;;;;;;4.89;50.85;99780.13;5034315;28;20043;-54
2022/11/01 09:50:42;;;;;;;5.30;1.90;;;;;;;4.95;50.63;99794.00;5049470;28;20095;-61
2022/11/01 09:53:17;;;;;;;4.15;2.00;;;;;;;5.03;50.10;99783.78;5052858;28;20470;-58
2022/11/01 09:56:09;;;;;;;4.90;1.85;;;;;;;5.19;50.56;99789.03;5056305;28;20029;-55
2022/11/01 09:59:11;;;;;;;2.50;1.73;;;;;;;5.27;49.89;99792.09;5059064;28;20511;-57
2022/11/01 10:02:11;;;;;;;5.47;1.92;;;;;;;5.29;50.00;99787.53;5049004;28;20128;-55
2022/11/01 10:05:08;;;;;;;2.67;1.88;;;;;;;5.21;49.44;99789.81;5054308;28;20117;-55
2022/11/01 10:07:47;;;;;;;4.03;2.17;;;;;;;5.20;49.31;99784.59;5031513;28;20049;-56
2022/11/01 10:10:34;;;;;;;6.03;2.22;;;;;;;5.25;50.06;99790.50;5052830;28;20071;-56
2022/11/01 10:13:15;;;;;;;5.88;2.38;;;;;;;5.18;50.23;99790.00;5054095;28;20494;-57
2022/11/01 10:15:55;;;;;;;8.15;2.15;;;;;;;5.06;50.19;99793.34;5053844;28;20061;-55
2022/11/01 10:18:26;;;;;;;7.45;2.03;;;;;;;4.96;50.37;99793.88;5054488;28;20350;-54
2022/11/01 10:20:51;;;;;;;5.38;2.00;;;;;;;4.97;50.67;99792.94;5053391;28;20045;-56
2022/11/01 10:23:21;;;;;;;3.88;2.20;;;;;;;5.05;50.29;99787.19;5035189;28;20033;-55
2022/11/01 10:25:51;;;;;;;5.72;2.05;;;;;;;5.06;50.58;99778.28;5041248;28;20075;-53
2022/11/01 10:28:46;;;;;;;7.97;2.30;;;;;;;5.23;50.77;99785.25;5054021;28;20120;-53
2022/11/01 10:31:21;;;;;;;5.63;2.10;;;;;;;5.20;50.02;99777.47;5018171;28;20475;-54
2022/11/01 10:34:13;;;;;;;4.28;2.00;;;;;;;5.34;50.05;99794.41;5053368;28;20120;-56
2022/11/01 10:36:43;;;;;;;2.38;1.73;;;;;;;5.13;49.35;99792.91;5034086;28;20089;-53
2022/11/01 10:39:30;;;;;;;5.88;2.00;;;;;;;5.20;50.08;99790.75;5033760;28;20038;-56
2022/11/01 10:41:56;;;;;;;4.95;2.15;;;;;;;5.14;49.81;99778.69;5051024;28;20036;-55
2022/11/01 10:44:32;;;;;;;5.00;2.13;;;;;;;5.20;50.10;99796.06;5072770;28;20059;-53
2022/11/01 10:47:05;;;;;;;7.30;2.47;;;;;;;5.11;49.78;99799.25;5060156;28;20040;-55
2022/11/01 10:49:35;;;;;;;6.80;2.38;;;;;;;4.93;50.57;99796.72;5033117;28;20195;-58
2022/11/01 10:52:15;;;;;;;9.90;3.00;;;;;;;4.86;51.18;99798.03;5058322;28;20026;-61
2022/11/01 10:54:43;;;;;;;10.70;4.10;;;;;;;4.47;50.67;99775.47;5050136;28;20134;-55
2022/11/01 10:57:30;;;;;;;6.70;3.35;;;;;;;4.67;51.42;99800.84;5048801;28;20036;-54
2022/11/01 11:00:00;;;;;;;5.63;2.22;;;;;;;4.59;51.07;99809.25;5038585;28;20032;-56
2022/11/01 11:02:37;;;;;;;6.28;1.90;;;;;;;4.59;50.74;99798.66;5047909;28;20029;-54
2022/11/01 11:05:03;;;;;;;7.88;2.45;;;;;;;4.41;51.36;99803.16;5045582;28;20068;-57
2022/11/01 11:07:31;;;;;;;8.32;3.00;;;;;;;4.11;52.05;99811.88;5044159;28;20036;-57
2022/11/01 11:10:00;;;;;;;11.30;3.38;;;;;;;3.84;52.36;99783.28;5042468;28;20053;-55
2022/11/01 11:12:26;;;;;;;8.27;2.97;;;;;;;3.79;51.89;99774.72;5042115;28;20025;-54
2022/11/01 11:14:57;;;;;;;9.85;3.20;;;;;;;4.04;52.71;99813.97;5046954;28;20448;-58
2022/11/01 11:17:29;;;;;;;6.78;2.92;;;;;;;4.06;52.80;99809.47;5038315;28;20090;-58
2022/11/01 11:20:00;;;;;;;8.30;2.80;;;;;;;4.06;52.50;99809.47;5052457;28;20466;-56
2022/11/01 11:22:26;;;;;;;4.40;2.60;;;;;;;3.85;52.96;99807.00;5042271;28;20034;-59
2022/11/01 11:24:56;;;;;;;9.20;2.08;;;;;;;3.84;52.73;99799.16;5037231;28;20079;-61
2022/11/01 11:27:27;;;;;;;4.70;2.10;;;;;;;3.86;52.85;99814.06;5057740;28;20028;-57
2022/11/01 11:29:59;;;;;;;2.47;1.45;;;;;;;3.89;52.77;99807.72;5072213;28;20029;-56
2022/11/01 11:32:28;;;;;;;6.15;2.20;;;;;;;3.99;52.72;99808.09;5071863;28;20453;-57
2022/11/01 11:34:57;;;;;;;10.32;2.28;;;;;;;4.05;52.04;99807.75;5071894;28;20028;-59
2022/11/01 11:37:25;;;;;;;4.03;2.17;;;;;;;4.07;51.90;99800.56;5067095;28;20515;-58
2022/11/01 11:40:12;;;;;;;4.35;1.73;;;;;;;4.22;51.99;99808.63;5042861;28;20037;-54
2022/11/01 11:42:38;;;;;;;3.63;1.85;;;;;;;4.16;52.19;99804.50;5039131;28;20080;-62
2022/11/01 11:45:22;;;;;;;5.40;2.20;;;;;;;4.22;52.00;99792.75;5032433;28;20073;-59
2022/11/01 11:47:48;;;;;;;9.25;2.78;;;;;;;4.24;52.25;99812.06;5037325;28;20036;-54
2022/11/01 11:50:20;;;;;;;10.20;3.00;;;;;;;4.25;52.18;99808.47;5052036;28;20439;-58
2022/11/01 11:52:49;;;;;;;6.88;2.50;;;;;;;4.13;52.18;99816.16;5050755;28;20372;-57
2022/11/01 11:55:52;;;;;;;6.93;2.75;;;;;;;4.20;52.53;99810.50;5051859;28;20099;-53
2022/11/01 11:58:39;;;;;;;8.00;3.35;;;;;;;4.22;52.65;99812.16;4999723;28;20052;-55